| time (UTC) | temp F | wind direction | speed MPH | gust MPH | rain 1hr in | rain 24hr in | rain mn in | humidity % | barometer mb |
| 20260509205157 | 48 | 90 | 0.0 | 0.0 | 0.00 | 0.00 | 0.00 | 99 | 1022.0 |
| 20260509203659 | 46 | 67 | 0.0 | 0.0 | 0.00 | 0.00 | 0.00 | 99 | 1022.0 |
| 20260509195159 | 45 | 90 | 0.0 | 0.0 | 0.00 | 0.00 | 0.00 | 99 | 1021.0 |
| 20260509193658 | 45 | 202 | 0.0 | 0.0 | 0.00 | 0.00 | 0.00 | 99 | 1021.0 |
| 20260509185157 | 45 | 180 | 0.0 | 0.0 | 0.00 | 0.00 | 0.00 | 99 | 1020.0 |
| 20260509183657 | 46 | 45 | 0.0 | 0.0 | 0.00 | 0.00 | 0.00 | 99 | 1020.0 |
| 20260509175158 | 46 | 292 | 0.0 | 0.0 | 0.00 | 0.00 | 0.00 | 99 | 1020.0 |
| 20260509173658 | 46 | 67 | 0.0 | 0.0 | 0.00 | 0.00 | 0.00 | 99 | 1020.0 |
| 20260509165159 | 46 | 45 | 0.0 | 2.0 | 0.00 | 0.00 | 0.00 | 99 | 1019.0 |
| 20260509163658 | 48 | 90 | 0.0 | 2.0 | 0.00 | 0.00 | 0.00 | 99 | 1019.0 |
| 20260509155159 | 48 | 45 | 0.0 | 2.0 | 0.00 | 0.00 | 0.00 | 99 | 1019.0 |
| 20260509153658 | 48 | 45 | 0.0 | 0.0 | 0.00 | 0.00 | 0.00 | 99 | 1019.0 |
| 20260509145157 | 50 | 270 | 0.0 | 0.0 | 0.00 | 0.00 | 0.00 | 99 | 1019.0 |
| 20260509143659 | 50 | 45 | 0.0 | 0.0 | 0.00 | 0.00 | 0.00 | 99 | 1018.0 |
| 20260509135158 | 50 | 225 | 0.0 | 0.0 | 0.00 | 0.00 | 0.00 | 95 | 1018.0 |
| 20260509133657 | 50 | 157 | 0.0 | 0.0 | 0.00 | 0.00 | 0.00 | 91 | 1018.0 |
| 20260509125157 | 52 | 112 | 0.0 | 0.0 | 0.00 | 0.00 | 0.00 | 87 | 1017.0 |
| 20260509123657 | 52 | 90 | 0.0 | 0.0 | 0.00 | 0.00 | 0.00 | 85 | 1017.0 |
| 20260509115158 | 54 | 202 | 0.0 | 1.0 | 0.00 | 0.00 | 0.00 | 79 | 1017.0 |
| 20260509113658 | 55 | 67 | 0.0 | 1.0 | 0.00 | 0.00 | 0.00 | 77 | 1017.0 |
| 20260509105159 | 59 | 67 | 0.0 | 0.0 | 0.00 | 0.00 | 0.00 | 68 | 1016.0 |
| 20260509103658 | 59 | 112 | 0.0 | 2.0 | 0.00 | 0.00 | 0.00 | 66 | 1016.0 |
| 20260509095157 | 64 | 157 | 0.0 | 6.0 | 0.00 | 0.00 | 0.00 | 55 | 1015.0 |
| 20260509093657 | 66 | 67 | 1.0 | 6.0 | 0.00 | 0.00 | 0.00 | 49 | 1015.0 |
| 20260509085158 | 70 | 45 | 0.0 | 6.0 | 0.00 | 0.00 | 0.00 | 41 | 1014.0 |
| 20260509083658 | 70 | 45 | 0.0 | 9.0 | 0.00 | 0.00 | 0.00 | 43 | 1014.0 |
| 20260509075158 | 72 | 225 | 4.0 | 10.0 | 0.00 | 0.00 | 0.00 | 32 | 1013.0 |
| 20260509073658 | 72 | 112 | 2.0 | 10.0 | 0.00 | 0.00 | 0.00 | 32 | 1012.0 |
| 20260509065157 | 75 | 112 | 6.0 | 12.0 | 0.00 | 0.00 | 0.00 | 32 | 1012.0 |
| 20260509063658 | 75 | 45 | 6.0 | 12.0 | 0.00 | 0.00 | 0.00 | 32 | 1012.0 |
| 20260509055158 | 77 | 45 | 5.0 | 10.0 | 0.00 | 0.00 | 0.00 | 38 | 1012.0 |
| 20260509053658 | 77 | 360 | 2.0 | 10.0 | 0.00 | 0.00 | 0.00 | 37 | 1012.0 |
| 20260509045159 | 75 | 270 | 6.0 | 10.0 | 0.00 | 0.00 | 0.00 | 37 | 1012.0 |
| 20260509043659 | 75 | 292 | 6.0 | 10.0 | 0.00 | 0.00 | 0.00 | 38 | 1012.0 |
| 20260509035158 | 77 | 360 | 4.0 | 14.0 | 0.00 | 0.00 | 0.00 | 42 | 1012.0 |
| 20260509033657 | 77 | 180 | 6.0 | 14.0 | 0.00 | 0.00 | 0.00 | 41 | 1012.0 |
| 20260509025158 | 75 | 45 | 6.0 | 14.0 | 0.00 | 0.00 | 0.00 | 42 | 1011.0 |
| 20260509023658 | 73 | 270 | 8.0 | 14.0 | 0.00 | 0.00 | 0.00 | 41 | 1011.0 |
| 20260509015158 | 73 | 292 | 6.0 | 13.0 | 0.00 | 0.00 | 0.00 | 43 | 1011.0 |
| 20260509013658 | 72 | 225 | 10.0 | 12.0 | 0.00 | 0.00 | 0.00 | 43 | 1011.0 |
| 20260509005159 | 68 | 270 | 6.0 | 12.0 | 0.00 | 0.00 | 0.00 | 43 | 1011.0 |
| 20260509003658 | 68 | 292 | 6.0 | 12.0 | 0.00 | 0.00 | 0.00 | 43 | 1011.0 |
| 20260508235157 | 68 | 225 | 5.0 | 10.0 | 0.00 | 0.00 | 0.00 | 41 | 1010.0 |
| 20260508233657 | 68 | 247 | 4.0 | 10.0 | 0.00 | 0.00 | 0.00 | 44 | 1010.0 |
| 20260508225158 | 66 | 270 | 4.0 | 8.0 | 0.00 | 0.00 | 0.00 | 57 | 1010.0 |
| 20260508223657 | 64 | 225 | 4.0 | 6.0 | 0.00 | 0.00 | 0.00 | 63 | 1009.0 |
| 20260508215158 | 61 | 112 | 0.0 | 2.0 | 0.00 | 0.00 | 0.00 | 99 | 1009.0 |
| 20260508213658 | 61 | 112 | 0.0 | 1.0 | 0.00 | 0.00 | 0.00 | 99 | 1009.0 |